Time;durP1;ratioP1;P1;durP2;ratioP2;P2;SDS_P1;SDS_P2;PMS_P1;PMS_P2;Temp;Humidity;BMP_temperature;BMP_pressure;BME280_temperature;BME280_humidity;BME280_pressure;Samples;Min_cycle;Max_cycle;Signal;HPM_P1;HPM_P2
2022/06/24 00:01:36;;;;;;;15.23;4.82;;;;;;;;;;5053947;28;20025;-62
2022/06/24 00:04:02;;;;;;;12.75;4.07;;;;;;;;;;5053894;28;20065;-65
2022/06/24 00:06:30;;;;;;;12.43;4.35;;;;;;;;;;5053574;28;20048;-62
2022/06/24 00:08:59;;;;;;;10.75;4.00;;;;;;;;;;5053673;28;20064;-62
2022/06/24 00:11:26;;;;;;;18.42;4.38;;;;;;;;;;5053806;28;20037;-61
2022/06/24 00:14:02;;;;;;;16.92;4.10;;;;;;;;;;5053441;28;20102;-62
2022/06/24 00:16:28;;;;;;;10.80;4.35;;;;;;;;;;5053555;28;20179;-62
2022/06/24 00:19:10;;;;;;;17.83;4.82;;;;;;;;;;5053333;28;20029;-62
2022/06/24 00:21:37;;;;;;;10.73;4.32;;;;;;;;;;5053455;28;20033;-61
2022/06/24 00:24:03;;;;;;;11.07;4.75;;;;;;;;;;5053614;28;20429;-61
2022/06/24 00:26:39;;;;;;;10.73;4.55;;;;;;;;;;5053272;28;20041;-62
2022/06/24 00:29:05;;;;;;;13.57;5.28;;;;;;;;;;5053214;28;20025;-62
2022/06/24 00:31:31;;;;;;;15.80;4.82;;;;;;;;;;5053053;28;20037;-61
2022/06/24 00:33:57;;;;;;;17.33;5.78;;;;;;;;;;5051939;28;20140;-61
2022/06/24 00:36:23;;;;;;;13.05;6.13;;;;;;;;;;5053114;28;20037;-62
2022/06/24 00:38:51;;;;;;;17.25;5.32;;;;;;;;;;5052734;28;20048;-60
2022/06/24 00:41:22;;;;;;;17.17;6.03;;;;;;;;;;5052780;28;20120;-62
2022/06/24 00:43:53;;;;;;;12.82;5.18;;;;;;;;;;5053000;28;20442;-62
2022/06/24 00:46:25;;;;;;;18.97;5.87;;;;;;;;;;5052927;28;20191;-61
2022/06/24 00:48:55;;;;;;;24.00;6.13;;;;;;;;;;5053181;28;20256;-61
2022/06/24 00:51:22;;;;;;;15.45;5.20;;;;;;;;;;5052860;28;20410;-62
2022/06/24 00:53:49;;;;;;;18.65;5.93;;;;;;;;;;5053066;28;20199;-61
2022/06/24 00:56:16;;;;;;;12.20;5.18;;;;;;;;;;5053042;28;20387;-62
2022/06/24 00:58:53;;;;;;;10.98;4.68;;;;;;;;;;5050806;28;20037;-62
2022/06/24 01:01:26;;;;;;;16.45;5.65;;;;;;;;;;5050033;28;20499;-62
2022/06/24 01:03:54;;;;;;;24.27;5.28;;;;;;;;;;5050095;28;20040;-62
2022/06/24 01:06:20;;;;;;;17.60;5.38;;;;;;;;;;5052388;28;20136;-61
2022/06/24 01:08:46;;;;;;;13.68;5.10;;;;;;;;;;5052808;28;20068;-65
2022/06/24 01:11:12;;;;;;;13.77;5.80;;;;;;;;;;5052665;28;20037;-61
2022/06/24 01:13:38;;;;;;;14.93;5.55;;;;;;;;;;5051146;28;20441;-62
2022/06/24 01:16:05;;;;;;;12.65;5.22;;;;;;;;;;5052682;28;20032;-62
2022/06/24 01:18:31;;;;;;;18.08;5.35;;;;;;;;;;5052813;28;20071;-62
2022/06/24 01:20:57;;;;;;;14.57;5.20;;;;;;;;;;5052335;28;20060;-62
2022/06/24 01:23:26;;;;;;;17.70;6.18;;;;;;;;;;5052726;28;20091;-65
2022/06/24 01:25:52;;;;;;;19.50;6.15;;;;;;;;;;5052540;28;20033;-62
2022/06/24 01:28:18;;;;;;;13.77;5.75;;;;;;;;;;5052268;28;20214;-62
2022/06/24 01:30:44;;;;;;;15.90;6.13;;;;;;;;;;5052660;28;20400;-62
2022/06/24 01:33:10;;;;;;;20.27;6.32;;;;;;;;;;5052195;28;20044;-61
2022/06/24 01:35:36;;;;;;;17.38;6.63;;;;;;;;;;5052857;28;20459;-62
2022/06/24 01:38:02;;;;;;;17.17;6.18;;;;;;;;;;5052472;28;20033;-62
2022/06/24 01:40:28;;;;;;;17.60;6.25;;;;;;;;;;5052039;28;20048;-61
2022/06/24 01:42:54;;;;;;;20.60;6.72;;;;;;;;;;5052217;28;20036;-62
2022/06/24 01:45:21;;;;;;;21.85;6.88;;;;;;;;;;5052785;28;20033;-61
2022/06/24 01:47:47;;;;;;;17.58;6.97;;;;;;;;;;5052750;28;20045;-61
2022/06/24 01:50:13;;;;;;;25.90;7.18;;;;;;;;;;5052501;28;20056;-62
2022/06/24 01:52:39;;;;;;;14.45;7.32;;;;;;;;;;5052536;28;20130;-62
2022/06/24 01:55:05;;;;;;;17.80;7.05;;;;;;;;;;5052073;28;20041;-62
2022/06/24 01:57:31;;;;;;;18.17;7.10;;;;;;;;;;5052352;28;20543;-62
2022/06/24 01:59:59;;;;;;;19.10;6.80;;;;;;;;;;5052552;28;20037;-62
2022/06/24 02:02:25;;;;;;;15.95;6.93;;;;;;;;;;5052378;28;20514;-61
2022/06/24 02:04:54;;;;;;;14.30;6.40;;;;;;;;;;5052312;28;20072;-61
2022/06/24 02:07:20;;;;;;;25.75;6.82;;;;;;;;;;5052080;28;20047;-61
2022/06/24 02:15:15;;;;;;;18.15;6.30;;;;;;;;;;5054749;28;20032;-62
2022/06/24 02:17:41;;;;;;;12.88;6.32;;;;;;;;;;5056060;28;20040;-61
2022/06/24 02:20:08;;;;;;;15.30;6.45;;;;;;;;;;5055690;28;20116;-62
2022/06/24 02:22:34;;;;;;;14.90;5.90;;;;;;;;;;5055801;28;20033;-62
2022/06/24 02:25:00;;;;;;;20.80;6.60;;;;;;;;;;5055635;28;20044;-60
2022/06/24 02:27:26;;;;;;;14.57;6.95;;;;;;;;;;5055597;28;20434;-62
2022/06/24 02:29:52;;;;;;;15.27;5.82;;;;;;;;;;5055552;28;20090;-61
2022/06/24 02:32:18;;;;;;;14.13;6.72;;;;;;;;;;5055274;28;20499;-61
2022/06/24 02:34:44;;;;;;;16.70;5.88;;;;;;;;;;5055077;28;20036;-62
2022/06/24 02:37:10;;;;;;;16.25;5.93;;;;;;;;;;5055460;28;20025;-61
2022/06/24 02:39:36;;;;;;;20.35;7.68;;;;;;;;;;5055312;28;20073;-61
2022/06/24 02:42:02;;;;;;;18.00;7.25;;;;;;;;;;5055477;28;20118;-62
2022/06/24 02:44:28;;;;;;;19.83;7.95;;;;;;;;;;5055133;28;20041;-61
2022/06/24 02:46:54;;;;;;;22.08;6.78;;;;;;;;;;5054841;28;20041;-62
2022/06/24 02:49:20;;;;;;;20.75;7.07;;;;;;;;;;5055171;28;20033;-62
2022/06/24 02:51:46;;;;;;;19.33;7.65;;;;;;;;;;5055336;28;20035;-62
2022/06/24 02:54:12;;;;;;;18.55;7.60;;;;;;;;;;5055346;28;20060;-62
2022/06/24 02:56:38;;;;;;;18.20;7.07;;;;;;;;;;5055102;28;20041;-61
2022/06/24 02:59:04;;;;;;;20.80;7.07;;;;;;;;;;5055206;28;20029;-62
2022/06/24 03:01:30;;;;;;;23.90;7.38;;;;;;;;;;5055046;28;20043;-62
2022/06/24 03:03:56;;;;;;;24.42;7.15;;;;;;;;;;5054740;28;20033;-61
2022/06/24 03:06:22;;;;;;;24.05;7.93;;;;;;;;;;5054848;28;20107;-61
2022/06/24 03:08:48;;;;;;;20.13;8.15;;;;;;;;;;5054879;28;20029;-62
2022/06/24 03:11:14;;;;;;;19.98;7.50;;;;;;;;;;5054788;28;20037;-61
2022/06/24 03:13:40;;;;;;;17.55;7.13;;;;;;;;;;5054695;28;20475;-61
2022/06/24 03:16:07;;;;;;;15.07;7.60;;;;;;;;;;5054658;28;20037;-61
2022/06/24 03:18:33;;;;;;;14.68;7.38;;;;;;;;;;5054744;28;20025;-61
2022/06/24 03:20:59;;;;;;;21.23;7.70;;;;;;;;;;5054853;28;20119;-62
2022/06/24 03:23:25;;;;;;;16.05;8.05;;;;;;;;;;5054883;28;20068;-62
2022/06/24 03:25:51;;;;;;;18.65;7.70;;;;;;;;;;5053454;28;20033;-62
2022/06/24 03:28:17;;;;;;;19.08;7.18;;;;;;;;;;5054611;28;20040;-61
2022/06/24 03:30:43;;;;;;;16.88;7.47;;;;;;;;;;5054132;28;20403;-62
2022/06/24 03:33:10;;;;;;;20.90;8.13;;;;;;;;;;5054584;28;20107;-62
2022/06/24 03:35:36;;;;;;;25.00;8.73;;;;;;;;;;5054379;28;20100;-62
2022/06/24 03:38:02;;;;;;;23.88;7.60;;;;;;;;;;5054307;28;20029;-61
2022/06/24 03:40:28;;;;;;;23.25;8.10;;;;;;;;;;5054259;28;20040;-62
2022/06/24 03:42:54;;;;;;;20.42;8.27;;;;;;;;;;5054120;28;20029;-61
2022/06/24 03:45:20;;;;;;;20.83;8.27;;;;;;;;;;5054171;28;20537;-61
2022/06/24 03:47:46;;;;;;;22.63;7.93;;;;;;;;;;5054263;28;20047;-62
2022/06/24 03:50:12;;;;;;;24.40;8.38;;;;;;;;;;5054332;28;20033;-63
2022/06/24 03:52:38;;;;;;;26.27;7.72;;;;;;;;;;5053998;28;20033;-62
2022/06/24 03:55:05;;;;;;;20.40;7.53;;;;;;;;;;5053926;28;20036;-61
2022/06/24 03:57:31;;;;;;;18.73;8.45;;;;;;;;;;5053786;28;20487;-62
2022/06/24 03:59:57;;;;;;;20.10;8.10;;;;;;;;;;5053841;28;20029;-61
2022/06/24 04:02:23;;;;;;;20.70;8.73;;;;;;;;;;5053854;28;20087;-62
2022/06/24 04:04:49;;;;;;;20.17;7.80;;;;;;;;;;5053825;28;20037;-62
2022/06/24 04:07:15;;;;;;;22.38;9.18;;;;;;;;;;5053865;28;20090;-61
2022/06/24 04:09:41;;;;;;;21.40;7.47;;;;;;;;;;5053664;28;20036;-65
2022/06/24 04:12:07;;;;;;;19.63;7.85;;;;;;;;;;5053703;28;20040;-61
2022/06/24 04:17:18;;;;;;;23.77;8.30;;;;;;;;;;5053892;28;20039;-61
2022/06/24 04:19:44;;;;;;;22.17;9.70;;;;;;;;;;5053351;28;20113;-61
2022/06/24 04:22:10;;;;;;;21.75;8.95;;;;;;;;;;5053218;28;20064;-62
2022/06/24 04:24:36;;;;;;;19.02;7.85;;;;;;;;;;5053562;28;20029;-61
2022/06/24 04:27:02;;;;;;;21.58;8.00;;;;;;;;;;5053287;28;20048;-62
2022/06/24 04:29:28;;;;;;;19.00;7.95;;;;;;;;;;5053385;28;20033;-62
2022/06/24 04:31:54;;;;;;;21.50;7.88;;;;;;;;;;5053331;28;20044;-62
2022/06/24 04:34:20;;;;;;;29.48;8.18;;;;;;;;;;5053070;28;20108;-62
2022/06/24 04:36:46;;;;;;;27.55;8.70;;;;;;;;;;5053017;28;20112;-62
2022/06/24 04:39:12;;;;;;;21.75;7.72;;;;;;;;;;5053052;28;20487;-60
2022/06/24 04:41:38;;;;;;;21.27;8.05;;;;;;;;;;5052665;28;20033;-62
2022/06/24 04:44:04;;;;;;;31.30;8.07;;;;;;;;;;5053023;28;20115;-62
2022/06/24 04:46:30;;;;;;;27.05;8.05;;;;;;;;;;5052805;28;20045;-61
2022/06/24 04:48:56;;;;;;;29.40;8.07;;;;;;;;;;5053107;28;20036;-62
2022/06/24 04:51:22;;;;;;;20.65;7.53;;;;;;;;;;5052915;28;20479;-62
2022/06/24 04:53:48;;;;;;;30.25;8.25;;;;;;;;;;5052979;28;20041;-62
2022/06/24 04:56:14;;;;;;;24.13;7.30;;;;;;;;;;5052712;28;20036;-62
2022/06/24 04:58:40;;;;;;;24.48;7.80;;;;;;;;;;5053054;28;20033;-61
2022/06/24 05:01:06;;;;;;;19.35;7.60;;;;;;;;;;5053071;28;20163;-61
2022/06/24 05:03:33;;;;;;;23.80;8.00;;;;;;;;;;5052824;28;20100;-62
2022/06/24 05:05:59;;;;;;;24.02;8.30;;;;;;;;;;5052940;28;20063;-61
2022/06/24 05:08:25;;;;;;;23.55;8.18;;;;;;;;;;5052734;28;20040;-62
2022/06/24 05:10:51;;;;;;;21.30;8.02;;;;;;;;;;5052749;28;20091;-61
2022/06/24 05:13:17;;;;;;;21.02;8.93;;;;;;;;;;5052665;28;20458;-62
2022/06/24 05:15:43;;;;;;;25.25;8.45;;;;;;;;;;5052708;28;20090;-61
2022/06/24 05:18:09;;;;;;;26.73;8.60;;;;;;;;;;5052664;28;20029;-62
2022/06/24 05:20:35;;;;;;;26.17;8.07;;;;;;;;;;5052784;28;20039;-62
2022/06/24 05:23:01;;;;;;;21.55;8.38;;;;;;;;;;5052614;28;20112;-62
2022/06/24 05:25:27;;;;;;;25.67;7.38;;;;;;;;;;5052768;28;20478;-62
2022/06/24 05:27:53;;;;;;;24.75;7.85;;;;;;;;;;5052712;28;20093;-62
2022/06/24 05:30:19;;;;;;;26.48;7.97;;;;;;;;;;5052621;28;20480;-62
2022/06/24 05:32:45;;;;;;;29.73;7.97;;;;;;;;;;5052507;28;20095;-62
2022/06/24 05:35:11;;;;;;;26.17;7.95;;;;;;;;;;5052422;28;20395;-62
2022/06/24 05:37:39;;;;;;;29.15;8.35;;;;;;;;;;5052537;28;20135;-62
2022/06/24 05:40:06;;;;;;;27.38;8.68;;;;;;;;;;5052671;28;20399;-61
2022/06/24 05:42:32;;;;;;;27.13;8.63;;;;;;;;;;5052393;28;20399;-62
2022/06/24 05:44:58;;;;;;;27.73;7.65;;;;;;;;;;5052457;28;20605;-63
2022/06/24 05:47:24;;;;;;;23.35;8.07;;;;;;;;;;5052341;28;20127;-62
2022/06/24 05:49:50;;;;;;;27.85;7.80;;;;;;;;;;5054611;28;20106;-62
2022/06/24 05:52:16;;;;;;;38.38;9.32;;;;;;;;;;5056338;28;20037;-65
2022/06/24 05:57:27;;;;;;;30.73;8.05;;;;;;;;;;5056141;28;20044;-61
2022/06/24 05:59:53;;;;;;;21.90;7.88;;;;;;;;;;5056053;28;20449;-63
2022/06/24 06:02:20;;;;;;;20.20;7.45;;;;;;;;;;5056218;28;20111;-62
2022/06/24 06:04:47;;;;;;;27.90;9.43;;;;;;;;;;5056249;28;20066;-63
2022/06/24 06:07:13;;;;;;;20.88;7.40;;;;;;;;;;5055820;28;20048;-62
2022/06/24 06:09:39;;;;;;;28.60;8.13;;;;;;;;;;5055981;28;20033;-62
2022/06/24 06:12:05;;;;;;;37.30;9.15;;;;;;;;;;5056059;28;20087;-62
2022/06/24 06:14:31;;;;;;;20.30;8.05;;;;;;;;;;5055741;28;20029;-62
2022/06/24 06:16:57;;;;;;;28.50;7.78;;;;;;;;;;5055688;28;20041;-63
2022/06/24 06:19:23;;;;;;;26.13;7.45;;;;;;;;;;5055637;28;20033;-61
2022/06/24 06:21:50;;;;;;;25.33;7.80;;;;;;;;;;5055482;28;20112;-63
2022/06/24 06:24:16;;;;;;;29.20;7.80;;;;;;;;;;5055513;28;20067;-62
2022/06/24 06:26:42;;;;;;;31.05;8.13;;;;;;;;;;5055599;28;20048;-62
2022/06/24 06:29:08;;;;;;;28.15;7.15;;;;;;;;;;5053985;28;20044;-62
2022/06/24 06:31:34;;;;;;;28.83;7.68;;;;;;;;;;5054848;28;20033;-65
2022/06/24 06:34:00;;;;;;;26.50;7.10;;;;;;;;;;5054577;28;20075;-62
2022/06/24 06:36:26;;;;;;;26.63;7.22;;;;;;;;;;5053556;28;20487;-60
2022/06/24 06:38:52;;;;;;;29.65;7.35;;;;;;;;;;5035109;28;20033;-62
2022/06/24 06:41:18;;;;;;;36.03;8.15;;;;;;;;;;5035207;28;20037;-61
2022/06/24 06:43:44;;;;;;;33.03;9.13;;;;;;;;;;5035001;28;20502;-61
2022/06/24 06:46:11;;;;;;;34.75;8.15;;;;;;;;;;5034890;28;20042;-62
2022/06/24 06:48:37;;;;;;;35.45;6.53;;;;;;;;;;5034794;28;20113;-61
2022/06/24 06:51:03;;;;;;;22.20;7.47;;;;;;;;;;5034758;28;20033;-62
2022/06/24 06:53:29;;;;;;;33.70;8.25;;;;;;;;;;5053534;28;20072;-61
2022/06/24 06:55:56;;;;;;;29.33;7.10;;;;;;;;;;5054782;28;20451;-60
2022/06/24 06:58:22;;;;;;;30.08;7.20;;;;;;;;;;5036437;28;20484;-60
2022/06/24 07:00:48;;;;;;;28.48;7.50;;;;;;;;;;5034539;28;20029;-62
2022/06/24 07:03:14;;;;;;;36.00;7.63;;;;;;;;;;5034725;28;20116;-61
2022/06/24 07:05:44;;;;;;;26.92;7.30;;;;;;;;;;5034592;28;20030;-61
2022/06/24 07:08:13;;;;;;;32.38;7.82;;;;;;;;;;5034504;28;20049;-60
2022/06/24 07:10:40;;;;;;;38.50;6.90;;;;;;;;;;5033180;28;20060;-61
2022/06/24 07:13:06;;;;;;;26.10;7.65;;;;;;;;;;5034204;28;20391;-62
2022/06/24 07:15:33;;;;;;;32.90;7.85;;;;;;;;;;5034436;28;20053;-62
2022/06/24 07:17:59;;;;;;;33.05;8.40;;;;;;;;;;5034561;28;20046;-62
2022/06/24 07:20:25;;;;;;;28.20;7.13;;;;;;;;;;5034737;28;20053;-61
2022/06/24 07:22:51;;;;;;;24.70;6.63;;;;;;;;;;5034362;28;20041;-65
2022/06/24 07:25:17;;;;;;;28.15;7.13;;;;;;;;;;5034716;28;20029;-61
2022/06/24 07:27:43;;;;;;;30.73;6.85;;;;;;;;;;5034639;28;20507;-66
2022/06/24 07:30:09;;;;;;;30.08;7.32;;;;;;;;;;5034493;28;20034;-62
2022/06/24 07:32:35;;;;;;;39.75;8.57;;;;;;;;;;5034006;28;20064;-64
2022/06/24 07:35:01;;;;;;;30.52;7.35;;;;;;;;;;5034512;28;20033;-62
2022/06/24 07:37:27;;;;;;;27.00;7.18;;;;;;;;;;5033285;28;20044;-62
2022/06/24 07:39:53;;;;;;;29.92;7.65;;;;;;;;;;5033521;28;20029;-66
2022/06/24 07:42:20;;;;;;;34.58;7.43;;;;;;;;;;5034253;28;20120;-61
2022/06/24 07:44:47;;;;;;;36.85;7.95;;;;;;;;;;5034288;28;20108;-62
2022/06/24 07:47:13;;;;;;;35.88;7.95;;;;;;;;;;5033800;28;20072;-62
2022/06/24 07:49:39;;;;;;;32.63;9.18;;;;;;;;;;5034265;28;20040;-61
2022/06/24 07:52:08;;;;;;;32.05;8.23;;;;;;;;;;5034114;28;20060;-63
2022/06/24 07:54:34;;;;;;;37.70;8.05;;;;;;;;;;5033706;28;20026;-61
2022/06/24 07:57:00;;;;;;;33.13;8.07;;;;;;;;;;5033773;28;20399;-62
2022/06/24 07:59:30;;;;;;;30.75;8.43;;;;;;;;;;5034075;28;20033;-62
2022/06/24 08:01:57;;;;;;;36.90;8.50;;;;;;;;;;5032669;28;20038;-62
2022/06/24 08:04:23;;;;;;;31.73;8.20;;;;;;;;;;5033959;28;20041;-62
2022/06/24 08:06:50;;;;;;;28.58;7.35;;;;;;;;;;5033718;28;20495;-61
2022/06/24 08:09:17;;;;;;;36.88;7.60;;;;;;;;;;5031589;28;20550;-62
2022/06/24 08:11:43;;;;;;;30.95;8.23;;;;;;;;;;5039457;28;20498;-64
2022/06/24 08:14:10;;;;;;;35.40;7.32;;;;;;;;;;5052961;28;20025;-61
2022/06/24 08:16:36;;;;;;;36.42;8.15;;;;;;;;;;5053255;28;20119;-60
2022/06/24 08:19:02;;;;;;;36.30;8.35;;;;;;;;;;5042139;28;20123;-60
2022/06/24 08:21:28;;;;;;;42.15;8.65;;;;;;;;;;5033189;28;20398;-64
2022/06/24 08:23:54;;;;;;;26.45;6.40;;;;;;;;;;5032737;28;20380;-60
2022/06/24 08:26:21;;;;;;;28.58;6.93;;;;;;;;;;5050677;28;20045;-62
2022/06/24 08:28:47;;;;;;;33.65;6.68;;;;;;;;;;5052629;28;20094;-62
2022/06/24 08:31:13;;;;;;;30.08;7.32;;;;;;;;;;5052362;28;20111;-61
2022/06/24 08:33:39;;;;;;;26.73;6.63;;;;;;;;;;5052578;28;20059;-61
2022/06/24 08:36:06;;;;;;;32.22;7.70;;;;;;;;;;5052763;28;20043;-60
2022/06/24 08:38:32;;;;;;;36.15;7.30;;;;;;;;;;5052754;28;20099;-64
2022/06/24 08:41:01;;;;;;;38.50;7.78;;;;;;;;;;5052575;28;20112;-61
2022/06/24 08:43:29;;;;;;;34.17;6.45;;;;;;;;;;5052594;28;20599;-66
2022/06/24 08:45:56;;;;;;;28.20;5.28;;;;;;;;;;5052180;28;20112;-64
2022/06/24 08:48:22;;;;;;;32.25;5.80;;;;;;;;;;5052533;28;20094;-64
2022/06/24 08:50:49;;;;;;;37.17;6.28;;;;;;;;;;5052853;28;20033;-64
2022/06/24 08:53:17;;;;;;;35.22;5.72;;;;;;;;;;5052509;28;20124;-64
2022/06/24 08:55:44;;;;;;;33.53;5.13;;;;;;;;;;5052908;28;20029;-64
2022/06/24 08:58:11;;;;;;;28.13;5.78;;;;;;;;;;5053203;28;20029;-64
2022/06/24 09:00:38;;;;;;;33.60;5.30;;;;;;;;;;5052886;28;20041;-64
2022/06/24 09:03:04;;;;;;;27.17;4.82;;;;;;;;;;5052920;28;20094;-64
2022/06/24 09:05:31;;;;;;;32.67;5.65;;;;;;;;;;5052941;28;20513;-64
2022/06/24 09:08:04;;;;;;;32.40;5.40;;;;;;;;;;5052588;28;20049;-64
2022/06/24 09:10:30;;;;;;;28.60;6.25;;;;;;;;;;5052649;28;20029;-64
2022/06/24 09:12:56;;;;;;;22.38;5.43;;;;;;;;;;5052798;28;20167;-64
2022/06/24 09:15:24;;;;;;;39.13;5.70;;;;;;;;;;5052692;28;20033;-69
2022/06/24 09:17:50;;;;;;;23.58;4.90;;;;;;;;;;5052695;28;20037;-64
2022/06/24 09:20:18;;;;;;;24.27;5.03;;;;;;;;;;5052429;28;20123;-64
2022/06/24 09:22:44;;;;;;;32.70;5.65;;;;;;;;;;5052499;28;20029;-64
2022/06/24 09:25:11;;;;;;;26.73;5.55;;;;;;;;;;5055639;28;20033;-64
2022/06/24 09:27:43;;;;;;;24.70;5.55;;;;;;;;;;5056632;28;20045;-64
2022/06/24 09:30:10;;;;;;;28.50;5.40;;;;;;;;;;5057065;28;20481;-64
2022/06/24 09:32:48;;;;;;;31.42;4.90;;;;;;;;;;5056500;28;20499;-64
2022/06/24 09:35:14;;;;;;;30.50;5.88;;;;;;;;;;5056834;28;20033;-64
2022/06/24 09:37:41;;;;;;;26.10;5.13;;;;;;;;;;5056596;28;20371;-64
2022/06/24 09:40:15;;;;;;;25.95;5.75;;;;;;;;;;5056591;28;20025;-64
2022/06/24 09:42:41;;;;;;;24.98;5.25;;;;;;;;;;5056165;28;20102;-64
2022/06/24 09:45:07;;;;;;;28.75;4.68;;;;;;;;;;5056516;28;20143;-64
2022/06/24 09:47:39;;;;;;;28.00;5.75;;;;;;;;;;5056496;28;20051;-64
2022/06/24 09:50:05;;;;;;;33.58;5.72;;;;;;;;;;5056333;28;20029;-63
2022/06/24 09:52:32;;;;;;;34.00;6.55;;;;;;;;;;5056507;28;20475;-64
2022/06/24 09:54:59;;;;;;;33.13;5.93;;;;;;;;;;5056303;28;20029;-64
2022/06/24 09:57:25;;;;;;;32.83;6.47;;;;;;;;;;5056494;28;20407;-65
2022/06/24 10:02:36;;;;;;;24.42;5.20;;;;;;;;;;5056166;28;20047;-64
2022/06/24 10:05:03;;;;;;;34.25;5.60;;;;;;;;;;5056223;28;20090;-63
2022/06/24 10:07:32;;;;;;;35.30;6.25;;;;;;;;;;5055767;28;20041;-63
2022/06/24 10:10:00;;;;;;;35.22;7.68;;;;;;;;;;5056293;28;20032;-64
2022/06/24 10:12:26;;;;;;;34.97;5.93;;;;;;;;;;5055822;28;20479;-64
2022/06/24 10:14:53;;;;;;;36.40;5.75;;;;;;;;;;5055740;28;20036;-64
2022/06/24 10:17:20;;;;;;;25.20;5.10;;;;;;;;;;5056009;28;20067;-64
2022/06/24 10:19:47;;;;;;;30.58;6.40;;;;;;;;;;5055829;28;20021;-64
2022/06/24 10:22:31;;;;;;;32.20;5.20;;;;;;;;;;5055824;28;20037;-64
2022/06/24 10:24:57;;;;;;;30.45;6.18;;;;;;;;;;5055894;28;20043;-64
2022/06/24 10:27:43;;;;;;;42.55;6.68;;;;;;;;;;5056125;28;20045;-64
2022/06/24 10:30:09;;;;;;;28.58;6.13;;;;;;;;;;5055598;28;20564;-64
2022/06/24 10:32:35;;;;;;;34.85;5.78;;;;;;;;;;5055569;28;20506;-64
2022/06/24 10:35:06;;;;;;;31.20;5.70;;;;;;;;;;5055062;28;20529;-64
2022/06/24 10:37:33;;;;;;;27.55;5.40;;;;;;;;;;5055586;28;20048;-64
2022/06/24 10:40:00;;;;;;;36.30;6.65;;;;;;;;;;5055433;28;20032;-64
2022/06/24 10:42:26;;;;;;;32.60;5.78;;;;;;;;;;5055077;28;20037;-64
2022/06/24 10:44:56;;;;;;;25.15;5.30;;;;;;;;;;5055211;28;20037;-63
2022/06/24 10:47:22;;;;;;;28.85;5.30;;;;;;;;;;5055004;28;20128;-64
2022/06/24 10:49:54;;;;;;;37.92;6.18;;;;;;;;;;5053421;28;20112;-64
2022/06/24 10:52:37;;;;;;;36.83;5.57;;;;;;;;;;5054640;28;20029;-63
2022/06/24 10:55:20;;;;;;;28.55;5.40;;;;;;;;;;5054815;28;20543;-64
2022/06/24 10:57:46;;;;;;;30.15;4.68;;;;;;;;;;5054869;28;20032;-63
2022/06/24 11:00:15;;;;;;;34.90;4.85;;;;;;;;;;5033690;28;20041;-63
2022/06/24 11:02:42;;;;;;;33.95;5.40;;;;;;;;;;5044862;28;20029;-65
2022/06/24 11:05:15;;;;;;;31.50;6.32;;;;;;;;;;5041482;28;20077;-64
2022/06/24 11:07:45;;;;;;;31.42;5.88;;;;;;;;;;5034603;28;20049;-63
2022/06/24 11:10:17;;;;;;;29.48;5.35;;;;;;;;;;5034721;28;20041;-63
2022/06/24 11:12:48;;;;;;;37.03;5.65;;;;;;;;;;5033714;28;20108;-64
2022/06/24 11:15:14;;;;;;;23.88;5.63;;;;;;;;;;5031599;28;20037;-64
2022/06/24 11:17:41;;;;;;;32.03;5.18;;;;;;;;;;5031645;28;20065;-63
2022/06/24 11:20:08;;;;;;;29.55;5.03;;;;;;;;;;5034288;28;20088;-64
2022/06/24 11:22:43;;;;;;;34.67;7.97;;;;;;;;;;5034407;28;20095;-63
2022/06/24 11:25:11;;;;;;;27.08;4.60;;;;;;;;;;5034380;28;20373;-63
2022/06/24 11:27:37;;;;;;;24.88;4.30;;;;;;;;;;5034170;28;20053;-63
2022/06/24 11:30:04;;;;;;;31.15;5.13;;;;;;;;;;5033552;28;20057;-64
2022/06/24 11:32:50;;;;;;;23.15;4.68;;;;;;;;;;5033885;28;20414;-63
2022/06/24 11:35:19;;;;;;;22.75;4.57;;;;;;;;;;5034699;28;20125;-64
2022/06/24 11:37:45;;;;;;;36.33;6.05;;;;;;;;;;5032983;28;20042;-64
2022/06/24 11:40:28;;;;;;;27.83;5.22;;;;;;;;;;5031516;28;20038;-62
2022/06/24 11:42:55;;;;;;;28.42;6.50;;;;;;;;;;5031377;28;20438;-65
2022/06/24 11:45:37;;;;;;;29.75;5.18;;;;;;;;;;5033153;28;20052;-64
2022/06/24 11:48:04;;;;;;;28.23;4.75;;;;;;;;;;5033292;28;20443;-65
2022/06/24 11:50:32;;;;;;;31.60;5.28;;;;;;;;;;5032714;28;20063;-65
2022/06/24 11:52:58;;;;;;;31.13;4.80;;;;;;;;;;5033014;28;20033;-64
2022/06/24 11:55:25;;;;;;;27.70;5.65;;;;;;;;;;5045024;28;20441;-63
2022/06/24 11:57:55;;;;;;;29.33;5.30;;;;;;;;;;5053398;28;20040;-64
2022/06/24 12:00:22;;;;;;;29.48;5.07;;;;;;;;;;5053152;28;20094;-63
2022/06/24 12:02:48;;;;;;;26.15;4.97;;;;;;;;;;5053322;28;20545;-63
2022/06/24 12:05:14;;;;;;;34.67;4.82;;;;;;;;;;5034408;28;20117;-63
2022/06/24 12:07:41;;;;;;;29.40;4.68;;;;;;;;;;5019072;28;20065;-64
2022/06/24 12:10:07;;;;;;;31.38;5.40;;;;;;;;;;5033436;28;20399;-64
2022/06/24 12:12:33;;;;;;;30.52;4.70;;;;;;;;;;5033295;28;20122;-62
2022/06/24 12:14:59;;;;;;;23.63;4.95;;;;;;;;;;5033118;28;20381;-63
2022/06/24 12:17:25;;;;;;;25.27;4.90;;;;;;;;;;5033072;28;20040;-63
2022/06/24 12:19:56;;;;;;;32.47;6.05;;;;;;;;;;5033137;28;20029;-63
2022/06/24 12:22:22;;;;;;;26.02;4.82;;;;;;;;;;5033474;28;20117;-63
2022/06/24 12:24:48;;;;;;;28.35;4.93;;;;;;;;;;5032933;28;20099;-64
2022/06/24 12:27:14;;;;;;;30.13;4.85;;;;;;;;;;5032858;28;20476;-63
2022/06/24 12:29:41;;;;;;;35.05;5.03;;;;;;;;;;5033044;28;20117;-64
2022/06/24 12:32:07;;;;;;;23.52;4.75;;;;;;;;;;5032783;28;20526;-63
2022/06/24 12:34:37;;;;;;;35.35;5.35;;;;;;;;;;5033142;28;20383;-65
2022/06/24 12:37:06;;;;;;;25.50;4.88;;;;;;;;;;5033491;28;20091;-64
2022/06/24 12:39:32;;;;;;;31.00;5.03;;;;;;;;;;5032925;28;20060;-63
2022/06/24 12:41:58;;;;;;;34.28;4.82;;;;;;;;;;5033374;28;20037;-64
2022/06/24 12:44:28;;;;;;;36.05;6.32;;;;;;;;;;5032155;28;20030;-69
2022/06/24 12:52:36;;;;;;;29.38;4.85;;;;;;;;;;5030547;28;20048;-64
2022/06/24 12:55:03;;;;;;;23.30;4.93;;;;;;;;;;5032597;28;20112;-64
2022/06/24 12:57:29;;;;;;;21.95;5.15;;;;;;;;;;5032798;28;20201;-64
2022/06/24 12:59:55;;;;;;;30.73;5.45;;;;;;;;;;5032949;28;20116;-63
2022/06/24 13:02:21;;;;;;;27.17;4.57;;;;;;;;;;5033132;28;20384;-64
2022/06/24 13:04:47;;;;;;;33.78;5.80;;;;;;;;;;5032982;28;20083;-63
2022/06/24 13:07:13;;;;;;;30.70;4.72;;;;;;;;;;5033008;28;20381;-63
2022/06/24 13:09:39;;;;;;;30.45;4.95;;;;;;;;;;5033093;28;20479;-64
2022/06/24 13:12:06;;;;;;;28.08;4.47;;;;;;;;;;5032753;28;20521;-63
2022/06/24 13:14:32;;;;;;;27.13;5.05;;;;;;;;;;5033386;28;20033;-63
2022/06/24 13:16:58;;;;;;;28.77;5.10;;;;;;;;;;5032800;28;20026;-64
2022/06/24 13:19:24;;;;;;;32.45;4.85;;;;;;;;;;5032902;28;20068;-63
2022/06/24 13:21:50;;;;;;;25.63;4.88;;;;;;;;;;5032790;28;20057;-64
2022/06/24 13:24:19;;;;;;;30.65;6.28;;;;;;;;;;5032732;28;20041;-64
2022/06/24 13:26:45;;;;;;;22.58;4.53;;;;;;;;;;5032724;28;20033;-63
2022/06/24 13:29:11;;;;;;;28.35;4.45;;;;;;;;;;5032754;28;20036;-63
2022/06/24 13:31:38;;;;;;;26.55;4.10;;;;;;;;;;5032684;28;20029;-64
2022/06/24 13:34:04;;;;;;;19.60;4.47;;;;;;;;;;5032956;28;20045;-64
2022/06/24 13:36:30;;;;;;;25.60;4.53;;;;;;;;;;5032549;28;20034;-64
2022/06/24 13:38:56;;;;;;;23.42;4.20;;;;;;;;;;5032549;28;20030;-65
2022/06/24 13:41:22;;;;;;;28.02;4.95;;;;;;;;;;5032696;28;20090;-64
2022/06/24 13:43:48;;;;;;;25.60;5.45;;;;;;;;;;5033096;28;20415;-68
2022/06/24 13:46:14;;;;;;;29.00;5.22;;;;;;;;;;5032559;28;20447;-63
2022/06/24 13:48:40;;;;;;;33.70;5.53;;;;;;;;;;5032680;28;20490;-65
2022/06/24 13:51:06;;;;;;;27.00;4.30;;;;;;;;;;5032580;28;20034;-69
2022/06/24 13:53:33;;;;;;;40.58;6.95;;;;;;;;;;5032629;28;20121;-62
2022/06/24 13:55:59;;;;;;;25.48;5.10;;;;;;;;;;5032374;28;20037;-65
2022/06/24 13:58:25;;;;;;;25.17;5.80;;;;;;;;;;5032678;28;20105;-69
2022/06/24 14:00:51;;;;;;;28.75;5.78;;;;;;;;;;5032201;28;20034;-65
2022/06/24 14:03:17;;;;;;;21.23;4.47;;;;;;;;;;5032524;28;20041;-64
2022/06/24 14:05:43;;;;;;;25.02;5.30;;;;;;;;;;5032545;28;20078;-64
2022/06/24 14:08:09;;;;;;;31.15;5.95;;;;;;;;;;5032064;28;20041;-63
2022/06/24 14:10:35;;;;;;;28.73;4.63;;;;;;;;;;5033802;28;20037;-64
2022/06/24 14:13:02;;;;;;;32.88;8.23;;;;;;;;;;5035879;28;20044;-63
2022/06/24 14:15:28;;;;;;;23.70;4.95;;;;;;;;;;5035803;28;20100;-64
2022/06/24 14:17:54;;;;;;;25.25;4.38;;;;;;;;;;5035877;28;20042;-64
2022/06/24 14:20:20;;;;;;;26.20;4.47;;;;;;;;;;5034104;28;20471;-64
2022/06/24 14:25:32;;;;;;;28.73;5.13;;;;;;;;;;5035556;28;20032;-63
2022/06/24 14:27:58;;;;;;;36.33;5.97;;;;;;;;;;5035324;28;20048;-63
2022/06/24 14:30:24;;;;;;;39.42;6.50;;;;;;;;;;5048756;28;20476;-62
2022/06/24 14:32:50;;;;;;;31.67;5.20;;;;;;;;;;5055192;28;20049;-62
2022/06/24 14:35:16;;;;;;;26.20;4.63;;;;;;;;;;5055350;28;20112;-63
2022/06/24 14:40:27;;;;;;;25.42;4.60;;;;;;;;;;5035074;28;20036;-63
2022/06/24 14:42:53;;;;;;;35.05;5.13;;;;;;;;;;5035093;28;20064;-63
2022/06/24 14:45:19;;;;;;;22.15;4.57;;;;;;;;;;5035035;28;20032;-64
2022/06/24 14:47:45;;;;;;;37.90;5.47;;;;;;;;;;5034631;28;20045;-64
2022/06/24 14:50:11;;;;;;;28.65;4.68;;;;;;;;;;5034537;28;20030;-64
2022/06/24 14:52:37;;;;;;;28.17;5.03;;;;;;;;;;5035036;28;20037;-64
2022/06/24 14:55:04;;;;;;;24.50;4.28;;;;;;;;;;5035084;28;20104;-64